createdAt,value
2019-05-23T00:00:06.980Z,1020.6
2019-05-23T00:01:07.018Z,1020.7
2019-05-23T00:02:07.108Z,1020.6
2019-05-23T00:03:07.091Z,1020.7
2019-05-23T00:04:07.187Z,1020.6
2019-05-23T00:05:07.199Z,1020.7
2019-05-23T00:06:07.207Z,1020.6
2019-05-23T00:07:07.176Z,1020.6
2019-05-23T00:08:07.206Z,1020.7
2019-05-23T00:09:07.248Z,1020.7
2019-05-23T00:10:07.321Z,1020.7
2019-05-23T00:11:07.309Z,1020.8
2019-05-23T00:12:07.349Z,1020.7
2019-05-23T00:13:07.358Z,1020.7
2019-05-23T00:14:07.369Z,1020.7
2019-05-23T00:15:07.487Z,1020.7
2019-05-23T00:16:08.503Z,1020.6
2019-05-23T00:17:07.505Z,1020.7
2019-05-23T00:18:07.518Z,1020.7
2019-05-23T00:19:07.540Z,1020.7
2019-05-23T00:20:07.573Z,1020.7
2019-05-23T00:21:07.634Z,1020.7
2019-05-23T00:22:07.643Z,1020.7
2019-05-23T00:23:07.730Z,1020.8
2019-05-23T00:24:07.701Z,1020.8
2019-05-23T00:25:07.735Z,1020.7
2019-05-23T00:26:07.784Z,1020.7
2019-05-23T00:27:07.798Z,1020.7
2019-05-23T00:28:07.866Z,1020.6
2019-05-23T00:29:10.251Z,1020.7
2019-05-23T00:30:07.869Z,1020.7
2019-05-23T00:31:07.914Z,1020.7
2019-05-23T00:32:07.936Z,1020.7
2019-05-23T00:33:07.970Z,1020.7
2019-05-23T00:34:07.997Z,1020.7
2019-05-23T00:35:07.996Z,1020.7
2019-05-23T00:36:08.027Z,1020.7
2019-05-23T00:37:08.045Z,1020.7
2019-05-23T00:38:08.059Z,1020.7
2019-05-23T00:39:08.089Z,1020.7
2019-05-23T00:40:08.082Z,1020.7
2019-05-23T00:41:08.085Z,1020.7
2019-05-23T00:42:08.113Z,1020.8
2019-05-23T00:43:08.145Z,1020.8
2019-05-23T00:44:08.178Z,1020.7
2019-05-23T00:45:08.162Z,1020.9
2019-05-23T00:46:08.167Z,1020.9
2019-05-23T00:47:08.183Z,1020.7
2019-05-23T00:48:08.198Z,1020.7
2019-05-23T00:49:08.244Z,1020.8
2019-05-23T00:50:08.202Z,1020.8
2019-05-23T00:51:08.196Z,1020.8
2019-05-23T00:52:08.231Z,1020.8
2019-05-23T00:53:08.248Z,1020.8
2019-05-23T00:54:08.268Z,1020.9
2019-05-23T00:55:08.226Z,1020.9
2019-05-23T00:56:08.259Z,1020.9
2019-05-23T00:57:08.256Z,1020.8
2019-05-23T00:58:08.233Z,1020.9
2019-05-23T00:59:08.285Z,1020.9
2019-05-23T01:00:08.240Z,1020.9
2019-05-23T01:01:08.265Z,1020.9
2019-05-23T01:02:08.312Z,1021
2019-05-23T01:03:08.290Z,1021
2019-05-23T01:04:08.428Z,1020.9
2019-05-23T01:05:08.444Z,1020.9
2019-05-23T01:06:08.455Z,1020.9
2019-05-23T01:07:08.471Z,1020.9
2019-05-23T01:08:08.527Z,1021
2019-05-23T01:09:08.574Z,1020.9
2019-05-23T01:10:08.577Z,1021
2019-05-23T01:11:08.628Z,1021
2019-05-23T01:12:08.733Z,1021
2019-05-23T01:13:08.754Z,1020.9
2019-05-23T01:14:08.755Z,1021
2019-05-23T01:15:08.858Z,1021
2019-05-23T01:16:08.894Z,1021
2019-05-23T01:17:08.928Z,1021.1
2019-05-23T01:18:08.999Z,1021
2019-05-23T01:19:09.032Z,1021
2019-05-23T01:20:09.106Z,1021
2019-05-23T01:21:09.159Z,1021
2019-05-23T01:22:09.211Z,1021
2019-05-23T01:23:09.247Z,1021
2019-05-23T01:24:09.295Z,1020.9
2019-05-23T01:25:09.382Z,1021
2019-05-23T01:26:09.412Z,1021
2019-05-23T01:27:09.577Z,1020.9
2019-05-23T01:28:09.517Z,1021
2019-05-23T01:29:09.563Z,1021
2019-05-23T01:30:09.648Z,1020.9
2019-05-23T01:31:09.637Z,1020.9
2019-05-23T01:32:09.665Z,1020.9
2019-05-23T01:33:09.735Z,1020.9
2019-05-23T01:34:09.830Z,1020.8
2019-05-23T01:35:09.861Z,1020.8
2019-05-23T01:36:09.914Z,1020.8
2019-05-23T01:37:10.013Z,1020.8
2019-05-23T01:38:10.028Z,1020.8
2019-05-23T01:39:10.028Z,1020.9
2019-05-23T01:40:10.060Z,1020.9
2019-05-23T01:41:10.146Z,1020.9
2019-05-23T01:42:10.149Z,1020.9
2019-05-23T01:43:10.234Z,1020.9
2019-05-23T01:44:10.220Z,1020.9
2019-05-23T01:45:10.254Z,1020.9
2019-05-23T01:46:10.319Z,1020.9
2019-05-23T01:47:10.346Z,1020.9
2019-05-23T01:48:10.354Z,1020.9
2019-05-23T01:49:10.370Z,1020.9
2019-05-23T01:50:10.442Z,1020.9
2019-05-23T01:51:10.442Z,1020.9
2019-05-23T01:52:10.453Z,1020.8
2019-05-23T01:53:10.457Z,1020.9
2019-05-23T01:54:10.499Z,1020.9
2019-05-23T01:55:10.520Z,1021
2019-05-23T01:56:10.566Z,1020.8
2019-05-23T01:57:10.563Z,1021
2019-05-23T01:58:10.592Z,1021.1
2019-05-23T01:59:10.632Z,1021
2019-05-23T02:00:11.897Z,1020.9
2019-05-23T02:01:10.685Z,1021
2019-05-23T02:02:10.709Z,1021
2019-05-23T02:03:10.729Z,1021.1
2019-05-23T02:04:10.773Z,1021.1
2019-05-23T02:05:10.773Z,1021.1
2019-05-23T02:06:10.783Z,1021
2019-05-23T02:07:10.817Z,1021.1
2019-05-23T02:08:10.886Z,1020.9
2019-05-23T02:09:10.881Z,1021
2019-05-23T02:10:10.870Z,1021
2019-05-23T02:11:10.914Z,1020.9
2019-05-23T02:12:10.957Z,1020.9
2019-05-23T02:13:11.000Z,1021
2019-05-23T02:14:10.978Z,1021
2019-05-23T02:15:11.041Z,1021
2019-05-23T02:16:11.036Z,1020.9
2019-05-23T02:17:11.059Z,1020.9
2019-05-23T02:18:11.104Z,1020.9
2019-05-23T02:19:13.633Z,1020.9
2019-05-23T02:20:11.172Z,1020.9
2019-05-23T02:21:11.169Z,1020.9
2019-05-23T02:22:11.220Z,1020.9
2019-05-23T02:23:11.210Z,1021
2019-05-23T02:24:11.216Z,1021
2019-05-23T02:25:11.278Z,1021
2019-05-23T02:26:11.280Z,1021
2019-05-23T02:27:11.282Z,1021
2019-05-23T02:28:11.344Z,1021
2019-05-23T02:29:11.321Z,1021
2019-05-23T02:30:32.071Z,1021
2019-05-23T02:31:11.375Z,1020.9
2019-05-23T02:32:11.381Z,1020.9
2019-05-23T02:33:11.390Z,1020.9
2019-05-23T02:34:11.434Z,1021
2019-05-23T02:35:11.409Z,1020.9
2019-05-23T02:36:11.534Z,1021
2019-05-23T02:37:11.430Z,1021
2019-05-23T02:38:11.466Z,1021
2019-05-23T02:39:11.475Z,1021
2019-05-23T02:40:11.470Z,1021
2019-05-23T02:41:11.602Z,1021
2019-05-23T02:42:11.524Z,1021
2019-05-23T02:43:11.516Z,1021
2019-05-23T02:44:11.512Z,1021
2019-05-23T02:45:11.499Z,1021
2019-05-23T02:46:11.535Z,1021.1
2019-05-23T02:47:11.572Z,1021
2019-05-23T02:48:11.537Z,1021.1
2019-05-23T02:49:11.534Z,1021.1
2019-05-23T02:50:11.534Z,1021.1
2019-05-23T02:51:11.537Z,1021.1
2019-05-23T02:52:11.589Z,1021.1
2019-05-23T02:53:11.578Z,1021.1
2019-05-23T02:54:11.661Z,1021.1
2019-05-23T02:55:11.688Z,1021.1
2019-05-23T02:56:11.754Z,1021.1
2019-05-23T02:57:11.847Z,1021
2019-05-23T02:58:11.791Z,1021
2019-05-23T02:59:11.880Z,1021.1
2019-05-23T03:00:11.925Z,1021.1
2019-05-23T03:01:12.019Z,1021.1
2019-05-23T03:02:12.062Z,1021.1
2019-05-23T03:03:12.126Z,1021.1
2019-05-23T03:04:12.099Z,1021.1
2019-05-23T03:05:12.126Z,1021.1
2019-05-23T03:06:12.143Z,1021.1
2019-05-23T03:07:12.186Z,1021.1
2019-05-23T03:08:12.237Z,1021.1
2019-05-23T03:09:12.275Z,1021.1
2019-05-23T03:10:12.299Z,1021.1
2019-05-23T03:11:12.327Z,1021.1
2019-05-23T03:12:12.427Z,1021.1
2019-05-23T03:13:12.339Z,1021.1
2019-05-23T03:14:12.374Z,1021
2019-05-23T03:15:12.397Z,1021
2019-05-23T03:16:12.483Z,1021.1
2019-05-23T03:17:12.530Z,1021.1
2019-05-23T03:18:12.562Z,1021.1
2019-05-23T03:19:12.600Z,1021.1
2019-05-23T03:20:12.620Z,1021.1
2019-05-23T03:21:12.703Z,1021.1
2019-05-23T03:22:12.748Z,1021.1
2019-05-23T03:23:12.791Z,1021
2019-05-23T03:24:12.801Z,1021
2019-05-23T03:25:12.902Z,1021
2019-05-23T03:26:12.919Z,1021
2019-05-23T03:27:12.993Z,1021.1
2019-05-23T03:28:13.023Z,1021
2019-05-23T03:29:13.067Z,1021
2019-05-23T03:30:13.123Z,1021.1
2019-05-23T03:31:28.090Z,1021
2019-05-23T03:32:13.195Z,1021
2019-05-23T03:33:13.325Z,1021
2019-05-23T03:34:13.277Z,1021
2019-05-23T03:35:13.366Z,1021
2019-05-23T03:36:13.408Z,1021.1
2019-05-23T03:37:45.713Z,1021
2019-05-23T03:38:13.455Z,1021
2019-05-23T03:39:13.496Z,1021
2019-05-23T03:40:13.634Z,1021.1
2019-05-23T03:41:13.627Z,1021.1
2019-05-23T03:42:13.575Z,1021
2019-05-23T03:43:13.660Z,1021
2019-05-23T03:44:13.669Z,1020.9
2019-05-23T03:45:13.662Z,1021
2019-05-23T03:46:13.721Z,1021
2019-05-23T03:47:13.765Z,1021
2019-05-23T03:48:13.786Z,1021
2019-05-23T03:49:13.822Z,1021
2019-05-23T03:50:13.908Z,1020.9
2019-05-23T03:51:13.877Z,1020.9
2019-05-23T03:52:13.930Z,1021
2019-05-23T03:53:13.947Z,1020.9
2019-05-23T03:54:13.966Z,1021
2019-05-23T03:55:14.051Z,1020.9
2019-05-23T03:56:14.035Z,1020.9
2019-05-23T03:57:14.116Z,1021
2019-05-23T03:58:14.079Z,1021
2019-05-23T03:59:14.107Z,1021
2019-05-23T04:00:14.189Z,1021
2019-05-23T04:01:14.224Z,1021
2019-05-23T04:02:14.228Z,1021
2019-05-23T04:03:14.246Z,1021
2019-05-23T04:04:14.255Z,1021
2019-05-23T04:05:14.280Z,1021
2019-05-23T04:06:14.330Z,1021.1
2019-05-23T04:07:14.346Z,1021.1
2019-05-23T04:08:14.369Z,1021.1
2019-05-23T04:09:14.428Z,1021.1
2019-05-23T04:10:14.406Z,1021.1
2019-05-23T04:11:14.479Z,1021
2019-05-23T04:12:14.491Z,1021.1
2019-05-23T04:13:14.478Z,1021
2019-05-23T04:14:14.506Z,1021.1
2019-05-23T04:15:14.538Z,1021.1
2019-05-23T04:16:14.574Z,1021
2019-05-23T04:17:14.622Z,1021
2019-05-23T04:18:14.606Z,1021.1
2019-05-23T04:19:14.619Z,1021.1
2019-05-23T04:20:14.644Z,1021
2019-05-23T04:21:14.671Z,1021.1
2019-05-23T04:22:14.680Z,1021.1
2019-05-23T04:23:14.667Z,1021
2019-05-23T04:24:14.718Z,1021.1
2019-05-23T04:25:14.715Z,1021.1
2019-05-23T04:26:14.734Z,1021.1
2019-05-23T04:27:14.784Z,1021.1
2019-05-23T04:28:14.749Z,1021.1
2019-05-23T04:29:14.767Z,1021.2
2019-05-23T04:30:14.782Z,1021.2
2019-05-23T04:31:14.777Z,1021.1
2019-05-23T04:32:14.822Z,1021.1
2019-05-23T04:33:14.812Z,1021.2
2019-05-23T04:34:14.818Z,1021.2
2019-05-23T04:35:14.818Z,1021.2
2019-05-23T04:36:14.825Z,1021.2
2019-05-23T04:37:14.885Z,1021.2
2019-05-23T04:38:14.897Z,1021.3
2019-05-23T04:39:14.883Z,1021.2
2019-05-23T04:40:14.866Z,1021.1
2019-05-23T04:41:14.857Z,1021.2
2019-05-23T04:42:14.905Z,1021.2
2019-05-23T04:43:14.860Z,1021.2
2019-05-23T04:44:14.880Z,1021.2
2019-05-23T04:45:14.903Z,1021.2
2019-05-23T04:46:14.933Z,1021.2
2019-05-23T04:47:14.979Z,1021.2
2019-05-23T04:48:15.013Z,1021.2
2019-05-23T04:49:15.073Z,1021.3
2019-05-23T04:50:15.120Z,1021.2
2019-05-23T04:51:15.125Z,1021.2
2019-05-23T04:52:15.139Z,1021.2
2019-05-23T04:53:15.159Z,1021.3
2019-05-23T04:54:15.188Z,1021.2
2019-05-23T04:55:15.293Z,1021.2
2019-05-23T04:56:15.296Z,1021.2
2019-05-23T04:57:15.369Z,1021.3
2019-05-23T04:58:15.384Z,1021.3
2019-05-23T04:59:15.473Z,1021.2
2019-05-23T05:00:15.490Z,1021.2
2019-05-23T05:01:15.499Z,1021.2
2019-05-23T05:02:25.294Z,1021.2
2019-05-23T05:03:18.054Z,1021.2
2019-05-23T05:04:15.689Z,1021.3
2019-05-23T05:05:15.736Z,1021.3
2019-05-23T05:06:15.806Z,1021.3
2019-05-23T05:07:15.790Z,1021.3
2019-05-23T05:08:15.861Z,1021.3
2019-05-23T05:09:15.972Z,1021.3
2019-05-23T05:10:15.896Z,1021.3
2019-05-23T05:11:15.953Z,1021.3
2019-05-23T05:12:15.995Z,1021.3
2019-05-23T05:13:16.028Z,1021.3
2019-05-23T05:14:16.144Z,1021.3
2019-05-23T05:15:16.166Z,1021.3
2019-05-23T05:16:16.161Z,1021.4
2019-05-23T05:17:16.177Z,1021.4
2019-05-23T05:18:16.262Z,1021.4
2019-05-23T05:19:16.285Z,1021.4
2019-05-23T05:20:16.330Z,1021.5
2019-05-23T05:21:16.380Z,1021.4
2019-05-23T05:22:16.436Z,1021.4
2019-05-23T05:23:16.515Z,1021.4
2019-05-23T05:24:16.517Z,1021.4
2019-05-23T05:25:16.586Z,1021.4
2019-05-23T05:26:16.602Z,1021.4
2019-05-23T05:27:16.646Z,1021.5
2019-05-23T05:28:16.725Z,1021.5
2019-05-23T05:29:16.707Z,1021.5
2019-05-23T05:30:16.762Z,1021.5
2019-05-23T05:31:16.762Z,1021.5
2019-05-23T05:32:16.808Z,1021.6
2019-05-23T05:33:16.894Z,1021.6
2019-05-23T05:34:16.925Z,1021.5
2019-05-23T05:35:16.992Z,1021.5
2019-05-23T05:36:17.034Z,1021.5
2019-05-23T05:37:17.053Z,1021.6
2019-05-23T05:38:17.129Z,1021.5
2019-05-23T05:39:17.090Z,1021.5
2019-05-23T05:40:17.121Z,1021.5
2019-05-23T05:41:17.130Z,1021.5
2019-05-23T05:42:17.185Z,1021.5
2019-05-23T05:43:17.206Z,1021.7
2019-05-23T05:44:17.237Z,1021.5
2019-05-23T05:45:17.235Z,1021.6
2019-05-23T05:46:17.257Z,1021.5
2019-05-23T05:47:17.224Z,1021.6
2019-05-23T05:48:17.317Z,1021.5
2019-05-23T05:49:17.277Z,1021.5
2019-05-23T05:50:17.339Z,1021.5
2019-05-23T05:51:17.365Z,1021.5
2019-05-23T05:52:17.386Z,1021.5
2019-05-23T05:53:17.436Z,1021.6
2019-05-23T05:54:17.416Z,1021.6
2019-05-23T05:55:17.493Z,1021.7
2019-05-23T05:56:17.834Z,1021.7
2019-05-23T05:57:17.526Z,1021.7
2019-05-23T05:58:17.623Z,1021.6
2019-05-23T05:59:17.595Z,1021.6
2019-05-23T06:00:17.669Z,1021.7
2019-05-23T06:01:32.650Z,1021.6
2019-05-23T06:02:17.733Z,1021.7
2019-05-23T06:03:17.755Z,1021.6
2019-05-23T06:04:17.760Z,1021.7
2019-05-23T06:05:17.874Z,1021.6
2019-05-23T06:06:17.842Z,1021.6
2019-05-23T06:07:17.873Z,1021.5
2019-05-23T06:08:17.883Z,1021.6
2019-05-23T06:09:17.948Z,1021.6
2019-05-23T06:10:17.964Z,1021.6
2019-05-23T06:11:17.973Z,1021.6
2019-05-23T06:12:18.030Z,1021.7
2019-05-23T06:13:18.034Z,1021.7
2019-05-23T06:14:18.035Z,1021.6
2019-05-23T06:15:18.080Z,1021.7
2019-05-23T06:16:18.192Z,1021.7
2019-05-23T06:17:18.185Z,1021.8
2019-05-23T06:18:18.131Z,1021.6
2019-05-23T06:19:18.229Z,1021.6
2019-05-23T06:20:18.191Z,1021.6
2019-05-23T06:21:18.210Z,1021.6
2019-05-23T06:22:18.271Z,1021.6
2019-05-23T06:23:18.230Z,1021.6
2019-05-23T06:24:18.245Z,1021.6
2019-05-23T06:25:18.322Z,1021.5
2019-05-23T06:26:18.354Z,1021.6
2019-05-23T06:27:18.406Z,1021.6
2019-05-23T06:28:18.380Z,1021.6
2019-05-23T06:29:18.517Z,1021.6
2019-05-23T06:30:18.365Z,1021.6
2019-05-23T06:31:18.409Z,1021.6
2019-05-23T06:32:18.392Z,1021.6
2019-05-23T06:33:23.034Z,1021.6
2019-05-23T06:34:18.443Z,1021.6
2019-05-23T06:35:18.439Z,1021.5
2019-05-23T06:36:18.455Z,1021.5
2019-05-23T06:37:18.474Z,1021.5
2019-05-23T06:38:18.507Z,1021.6
2019-05-23T06:39:19.526Z,1021.5
2019-05-23T06:40:18.491Z,1021.6
2019-05-23T06:41:18.475Z,1021.5
2019-05-23T06:42:18.578Z,1021.6
2019-05-23T06:43:18.538Z,1021.5
2019-05-23T06:44:18.811Z,1021.5
2019-05-23T06:45:18.545Z,1021.5
2019-05-23T06:46:18.566Z,1021.4
2019-05-23T06:47:18.522Z,1021.5
2019-05-23T06:48:18.533Z,1021.6
2019-05-23T06:49:18.522Z,1021.5
2019-05-23T06:50:18.538Z,1021.5
2019-05-23T06:51:18.530Z,1021.5
2019-05-23T06:52:18.603Z,1021.5
2019-05-23T06:53:18.663Z,1021.6
2019-05-23T06:54:18.661Z,1021.5
2019-05-23T06:55:18.796Z,1021.6
2019-05-23T06:56:18.801Z,1021.5
2019-05-23T06:57:18.827Z,1021.5
2019-05-23T06:58:19.155Z,1021.5
2019-05-23T06:59:18.881Z,1021.6
2019-05-23T07:00:18.898Z,1021.5
2019-05-23T07:01:18.914Z,1021.5
2019-05-23T07:02:18.929Z,1021.5
2019-05-23T07:03:18.948Z,1021.5
2019-05-23T07:04:18.997Z,1021.4
2019-05-23T07:05:19.166Z,1021.6
2019-05-23T07:06:19.193Z,1021.5
2019-05-23T07:07:19.201Z,1021.5
2019-05-23T07:08:19.235Z,1021.5
2019-05-23T07:09:19.281Z,1021.5
2019-05-23T07:10:19.377Z,1021.5
2019-05-23T07:11:19.437Z,1021.5
2019-05-23T07:12:19.474Z,1021.6
2019-05-23T07:13:19.546Z,1021.5
2019-05-23T07:14:19.663Z,1021.5
2019-05-23T07:15:19.670Z,1021.5
2019-05-23T07:16:19.746Z,1021.5
2019-05-23T07:17:19.785Z,1021.5
2019-05-23T07:18:19.796Z,1021.4
2019-05-23T07:19:19.864Z,1021.5
2019-05-23T07:20:19.908Z,1021.5
2019-05-23T07:21:19.970Z,1021.4
2019-05-23T07:22:20.046Z,1021.4
2019-05-23T07:23:20.075Z,1021.3
2019-05-23T07:24:20.109Z,1021.4
2019-05-23T07:25:20.162Z,1021.4
2019-05-23T07:26:20.176Z,1021.4
2019-05-23T07:27:20.341Z,1021.3
2019-05-23T07:28:20.256Z,1021.4
2019-05-23T07:29:20.758Z,1021.4
2019-05-23T07:30:20.355Z,1021.4
2019-05-23T07:31:20.390Z,1021.4
2019-05-23T07:32:20.476Z,1021.4
2019-05-23T07:33:20.490Z,1021.4
2019-05-23T07:34:20.537Z,1021.3
2019-05-23T07:35:20.585Z,1021.2
2019-05-23T07:36:20.605Z,1021.2
2019-05-23T07:37:20.682Z,1021.3
2019-05-23T07:38:20.670Z,1021.4
2019-05-23T07:39:20.731Z,1021.3
2019-05-23T07:40:20.778Z,1021.4
2019-05-23T07:41:20.836Z,1021.3
2019-05-23T07:42:20.862Z,1021.3
2019-05-23T07:43:20.894Z,1021.3
2019-05-23T07:44:20.962Z,1021.4
2019-05-23T07:45:20.958Z,1021.4
2019-05-23T07:46:20.980Z,1021.4
2019-05-23T07:47:21.058Z,1021.3
2019-05-23T07:48:21.079Z,1021.3
2019-05-23T07:49:21.111Z,1021.3
2019-05-23T07:50:21.114Z,1021.3
2019-05-23T07:51:21.179Z,1021.3
2019-05-23T07:52:21.227Z,1021.3
2019-05-23T07:53:22.266Z,1021.3
2019-05-23T07:54:21.300Z,1021.3
2019-05-23T07:55:21.521Z,1021.3
2019-05-23T07:56:21.344Z,1021.3
2019-05-23T07:57:21.529Z,1021.4
2019-05-23T07:58:21.358Z,1021.4
2019-05-23T07:59:21.391Z,1021.3
2019-05-23T08:00:21.420Z,1021.3
2019-05-23T08:01:22.495Z,1021.3
2019-05-23T08:02:25.394Z,1021.3
2019-05-23T08:03:21.517Z,1021.3
2019-05-23T08:04:22.544Z,1021.4
2019-05-23T08:05:21.481Z,1021.3
2019-05-23T08:06:21.561Z,1021.3
2019-05-23T08:07:21.549Z,1021.3
2019-05-23T08:08:21.588Z,1021.2
2019-05-23T08:09:21.680Z,1021.2
2019-05-23T08:10:33.408Z,1021.3
2019-05-23T08:11:21.756Z,1021.2
2019-05-23T08:12:21.802Z,1021.3
2019-05-23T08:13:21.692Z,1021.2
2019-05-23T08:14:21.764Z,1021.3
2019-05-23T08:15:21.735Z,1021.3
2019-05-23T08:16:21.786Z,1021.2
2019-05-23T08:17:21.801Z,1021.3
2019-05-23T08:18:21.793Z,1021.2
2019-05-23T08:19:21.856Z,1021.2
2019-05-23T08:20:21.843Z,1021.2
2019-05-23T08:21:21.876Z,1021.2
2019-05-23T08:22:24.373Z,1021.2
2019-05-23T08:23:21.897Z,1021.2
2019-05-23T08:24:21.930Z,1021.2
2019-05-23T08:25:21.991Z,1021.2
2019-05-23T08:26:21.959Z,1021.2
2019-05-23T08:27:21.948Z,1021.1
2019-05-23T08:28:21.956Z,1021.1
2019-05-23T08:29:25.780Z,1021
2019-05-23T08:30:22.038Z,1021.1
2019-05-23T08:31:21.988Z,1021.1
2019-05-23T08:32:22.028Z,1021.1
2019-05-23T08:33:22.005Z,1021.1
2019-05-23T08:34:39.805Z,1021.1
2019-05-23T08:35:22.062Z,1021.2
2019-05-23T08:36:22.047Z,1021.1
2019-05-23T08:37:22.074Z,1021.1
2019-05-23T08:38:22.072Z,1021.1
2019-05-23T08:39:22.103Z,1021.1
2019-05-23T08:40:22.099Z,1021.1
2019-05-23T08:41:22.120Z,1021.1
2019-05-23T08:42:22.143Z,1021.1
2019-05-23T08:43:22.095Z,1021.1
2019-05-23T08:44:22.111Z,1021.1
2019-05-23T08:45:22.093Z,1021.1
2019-05-23T08:46:22.127Z,1021.2
2019-05-23T08:47:22.130Z,1021.1
2019-05-23T08:48:22.111Z,1021
2019-05-23T08:49:22.146Z,1021.1
2019-05-23T08:50:22.170Z,1021.1
2019-05-23T08:51:22.275Z,1021.1
2019-05-23T08:52:22.281Z,1021.1
2019-05-23T08:53:22.378Z,1021.2
2019-05-23T08:54:22.405Z,1021
2019-05-23T08:55:22.432Z,1021.1
2019-05-23T08:56:22.490Z,1021.1
2019-05-23T08:57:22.511Z,1021.1
2019-05-23T08:58:22.619Z,1021.1
2019-05-23T08:59:22.601Z,1021.1
2019-05-23T09:00:22.684Z,1021.2
2019-05-23T09:01:22.938Z,1021
2019-05-23T09:02:22.736Z,1021
2019-05-23T09:03:22.828Z,1021
2019-05-23T09:04:22.822Z,1021
2019-05-23T09:05:22.871Z,1021
2019-05-23T09:06:22.896Z,1021
2019-05-23T09:07:22.935Z,1021.1
2019-05-23T09:08:23.039Z,1021.1
2019-05-23T09:09:29.414Z,1021.1
2019-05-23T09:10:23.094Z,1021
2019-05-23T09:11:23.110Z,1021
2019-05-23T09:12:23.144Z,1021
2019-05-23T09:13:23.158Z,1021
2019-05-23T09:14:23.250Z,1021.1
2019-05-23T09:15:23.318Z,1021.1
2019-05-23T09:16:23.339Z,1021
2019-05-23T09:17:23.349Z,1021
2019-05-23T09:18:23.413Z,1021.1
2019-05-23T09:19:23.439Z,1021.2
2019-05-23T09:20:23.520Z,1021.1
2019-05-23T09:21:23.505Z,1021.1
2019-05-23T09:22:23.522Z,1021.1
2019-05-23T09:23:23.583Z,1021
2019-05-23T09:24:23.623Z,1021
2019-05-23T09:25:23.688Z,1020.9
2019-05-23T09:26:23.666Z,1020.9
2019-05-23T09:27:23.742Z,1020.9
2019-05-23T09:28:23.849Z,1021
2019-05-23T09:29:23.840Z,1020.8
2019-05-23T09:30:23.873Z,1020.8
2019-05-23T09:31:23.870Z,1020.9
2019-05-23T09:32:23.935Z,1020.9
2019-05-23T09:33:23.989Z,1020.9
2019-05-23T09:34:23.972Z,1020.9
2019-05-23T09:35:24.060Z,1020.8
2019-05-23T09:36:24.037Z,1020.9
2019-05-23T09:37:24.214Z,1020.8
2019-05-23T09:38:24.079Z,1020.8
2019-05-23T09:39:24.147Z,1020.9
2019-05-23T09:40:24.198Z,1020.8
2019-05-23T09:41:24.210Z,1020.8
2019-05-23T09:42:24.220Z,1020.8
2019-05-23T09:43:24.221Z,1020.8
2019-05-23T09:44:24.294Z,1020.8
2019-05-23T09:45:24.340Z,1020.8
2019-05-23T09:46:24.406Z,1020.8
2019-05-23T09:47:24.369Z,1020.8
2019-05-23T09:48:24.438Z,1020.7
2019-05-23T09:49:24.400Z,1020.8
2019-05-23T09:50:24.483Z,1020.8
2019-05-23T09:51:24.826Z,1020.7
2019-05-23T09:52:24.456Z,1020.6
2019-05-23T09:53:24.475Z,1020.8
2019-05-23T09:54:24.533Z,1020.7
2019-05-23T09:55:24.542Z,1020.8
2019-05-23T09:56:24.618Z,1020.7
2019-05-23T09:57:24.613Z,1020.7
2019-05-23T09:58:24.586Z,1020.8
2019-05-23T09:59:24.583Z,1020.7
2019-05-23T10:00:24.590Z,1020.7
2019-05-23T10:01:26.864Z,1020.8
2019-05-23T10:02:24.598Z,1020.8
2019-05-23T10:03:24.711Z,1020.8
2019-05-23T10:04:24.650Z,1020.7
2019-05-23T10:05:40.601Z,1020.8
2019-05-23T10:06:24.655Z,1020.7
2019-05-23T10:07:24.679Z,1020.7
2019-05-23T10:08:24.692Z,1020.7
2019-05-23T10:09:24.782Z,1020.7
2019-05-23T10:10:24.743Z,1020.7
2019-05-23T10:11:24.746Z,1020.6
2019-05-23T10:12:24.768Z,1020.6
2019-05-23T10:13:38.183Z,1020.7
2019-05-23T10:14:24.819Z,1020.7
2019-05-23T10:15:24.808Z,1020.8
2019-05-23T10:16:24.821Z,1020.7
2019-05-23T10:17:24.920Z,1020.7
2019-05-23T10:18:24.870Z,1020.7
2019-05-23T10:19:24.919Z,1020.7
2019-05-23T10:20:24.915Z,1020.7
2019-05-23T10:21:24.897Z,1020.6
2019-05-23T10:22:24.906Z,1020.7
2019-05-23T10:23:24.911Z,1020.6
2019-05-23T10:24:24.961Z,1020.7
2019-05-23T10:25:24.972Z,1020.7
2019-05-23T10:26:24.945Z,1020.7
2019-05-23T10:27:24.977Z,1020.7
2019-05-23T10:28:24.970Z,1020.6
2019-05-23T10:29:25.003Z,1020.7
2019-05-23T10:30:24.977Z,1020.6
2019-05-23T10:31:24.995Z,1020.6
2019-05-23T10:32:24.983Z,1020.6
2019-05-23T10:33:24.985Z,1020.6
2019-05-23T10:34:25.021Z,1020.6
2019-05-23T10:35:25.064Z,1020.6
2019-05-23T10:36:25.103Z,1020.6
2019-05-23T10:37:25.176Z,1020.6
2019-05-23T10:38:29.042Z,1020.6
2019-05-23T10:39:25.301Z,1020.6
2019-05-23T10:40:25.303Z,1020.6
2019-05-23T10:41:25.367Z,1020.6
2019-05-23T10:42:25.402Z,1020.6
2019-05-23T10:43:25.437Z,1020.5
2019-05-23T10:44:25.559Z,1020.6
2019-05-23T10:45:25.557Z,1020.6
2019-05-23T10:46:25.645Z,1020.5
2019-05-23T10:47:25.677Z,1020.5
2019-05-23T10:48:25.740Z,1020.5
2019-05-23T10:49:25.741Z,1020.5
2019-05-23T10:50:25.808Z,1020.4
2019-05-23T10:51:25.829Z,1020.4
2019-05-23T10:52:25.902Z,1020.4
2019-05-23T10:53:26.041Z,1020.4
2019-05-23T10:54:25.969Z,1020.4
2019-05-23T10:55:26.025Z,1020.4
2019-05-23T10:56:26.122Z,1020.4
2019-05-23T10:57:26.175Z,1020.3
2019-05-23T10:58:26.164Z,1020.3
2019-05-23T10:59:26.187Z,1020.2
2019-05-23T11:00:26.282Z,1020.3
2019-05-23T11:01:26.374Z,1020.2
2019-05-23T11:02:27.187Z,1020.1
2019-05-23T11:03:26.399Z,1020.1
2019-05-23T11:04:26.464Z,1020.2
2019-05-23T11:05:26.487Z,1020.2
2019-05-23T11:06:26.502Z,1020.2
2019-05-23T11:07:26.535Z,1020.1
2019-05-23T11:08:28.699Z,1020.1
2019-05-23T11:09:37.003Z,1020.2
2019-05-23T11:10:26.677Z,1020.1
2019-05-23T11:11:26.769Z,1020.1
2019-05-23T11:12:26.799Z,1020.1
2019-05-23T11:13:26.830Z,1020
2019-05-23T11:14:26.876Z,1020.2
2019-05-23T11:15:26.924Z,1020.2
2019-05-23T11:16:26.916Z,1020.2
2019-05-23T11:17:26.986Z,1020.1
2019-05-23T11:18:27.079Z,1020.2
2019-05-23T11:19:27.022Z,1020.2
2019-05-23T11:20:27.097Z,1020.2
2019-05-23T11:21:27.087Z,1020.1
2019-05-23T11:22:27.135Z,1020
2019-05-23T11:23:27.156Z,1020
2019-05-23T11:24:27.235Z,1020.1
2019-05-23T11:25:27.230Z,1020.1
2019-05-23T11:26:27.265Z,1020.1
2019-05-23T11:27:27.356Z,1020.1
2019-05-23T11:28:27.360Z,1020.1
2019-05-23T11:29:27.658Z,1020
2019-05-23T11:30:27.614Z,1020
2019-05-23T11:31:27.403Z,1020.1
2019-05-23T11:32:27.469Z,1020.1
2019-05-23T11:33:27.462Z,1020.1
2019-05-23T11:34:27.518Z,1020
2019-05-23T11:35:27.554Z,1020
2019-05-23T11:36:35.261Z,1020
2019-05-23T11:37:27.666Z,1020.1
2019-05-23T11:38:27.633Z,1020
2019-05-23T11:39:27.661Z,1019.8
2019-05-23T11:40:27.751Z,1019.9
2019-05-23T11:41:27.735Z,1019.9
2019-05-23T11:42:27.786Z,1019.9
2019-05-23T11:43:27.826Z,1020
2019-05-23T11:44:27.837Z,1019.9
2019-05-23T11:45:27.816Z,1019.9
2019-05-23T11:46:27.908Z,1020
2019-05-23T11:47:31.265Z,1020
2019-05-23T11:48:28.421Z,1020
2019-05-23T11:49:27.955Z,1019.9
2019-05-23T11:50:27.953Z,1019.9
2019-05-23T11:51:28.314Z,1020
2019-05-23T11:52:28.025Z,1019.9
2019-05-23T11:53:28.080Z,1019.9
2019-05-23T11:54:28.267Z,1019.8
2019-05-23T11:55:28.086Z,1019.9
2019-05-23T11:56:28.356Z,1019.8
2019-05-23T11:57:28.210Z,1019.8
2019-05-23T11:58:32.026Z,1019.9
2019-05-23T11:59:30.401Z,1019.8
2019-05-23T12:00:28.350Z,1019.8
2019-05-23T12:01:28.242Z,1019.8
2019-05-23T12:02:28.302Z,1019.8
2019-05-23T12:03:28.304Z,1019.7
2019-05-23T12:04:28.322Z,1019.7
2019-05-23T12:05:28.339Z,1019.7
2019-05-23T12:06:28.317Z,1019.7
2019-05-23T12:07:28.354Z,1019.6
2019-05-23T12:08:28.349Z,1019.7
2019-05-23T12:09:28.368Z,1019.7
2019-05-23T12:10:28.428Z,1019.7
2019-05-23T12:11:28.407Z,1019.8
2019-05-23T12:12:28.397Z,1019.8
2019-05-23T12:13:28.424Z,1019.8
2019-05-23T12:14:28.430Z,1019.8
2019-05-23T12:15:28.474Z,1019.7
2019-05-23T12:16:28.474Z,1019.7
2019-05-23T12:17:28.470Z,1019.8
2019-05-23T12:18:28.504Z,1019.7
2019-05-23T12:19:28.485Z,1019.7
2019-05-23T12:20:28.500Z,1019.7
2019-05-23T12:21:28.485Z,1019.7
2019-05-23T12:22:28.616Z,1019.7
2019-05-23T12:23:28.557Z,1019.6
2019-05-23T12:24:28.777Z,1019.6
2019-05-23T12:25:28.582Z,1019.6
2019-05-23T12:26:28.619Z,1019.6
2019-05-23T12:27:28.786Z,1019.5
2019-05-23T12:28:28.704Z,1019.6
2019-05-23T12:29:28.773Z,1019.6
2019-05-23T12:30:28.864Z,1019.5
2019-05-23T12:31:28.924Z,1019.5
2019-05-23T12:32:28.926Z,1019.4
2019-05-23T12:33:28.955Z,1019.6
2019-05-23T12:34:29.043Z,1019.7
2019-05-23T12:35:29.000Z,1019.6
2019-05-23T12:36:29.062Z,1019.6